sensor_id;sensor_type;location;lat;lon;timestamp;temperature;humidity
39371;DHT22;25099;51.946;4.838;2023-12-20T00:01:35;7.80;99.90
39371;DHT22;25099;51.946;4.838;2023-12-20T00:04:01;7.80;99.90
39371;DHT22;25099;51.946;4.838;2023-12-20T00:06:27;7.80;99.90
39371;DHT22;25099;51.946;4.838;2023-12-20T00:08:53;7.80;99.90
39371;DHT22;25099;51.946;4.838;2023-12-20T00:11:19;7.80;99.90
39371;DHT22;25099;51.946;4.838;2023-12-20T00:13:44;7.80;99.90
39371;DHT22;25099;51.946;4.838;2023-12-20T00:16:10;7.70;99.90
39371;DHT22;25099;51.946;4.838;2023-12-20T00:18:35;7.80;99.90
39371;DHT22;25099;51.946;4.838;2023-12-20T00:21:01;7.70;99.90
39371;DHT22;25099;51.946;4.838;2023-12-20T00:23:26;7.80;99.90
39371;DHT22;25099;51.946;4.838;2023-12-20T00:25:52;7.70;99.90
39371;DHT22;25099;51.946;4.838;2023-12-20T00:28:18;7.70;99.90
39371;DHT22;25099;51.946;4.838;2023-12-20T00:30:44;7.80;99.90
39371;DHT22;25099;51.946;4.838;2023-12-20T00:33:09;7.80;99.90
39371;DHT22;25099;51.946;4.838;2023-12-20T00:35:36;7.80;99.90
39371;DHT22;25099;51.946;4.838;2023-12-20T00:38:01;7.80;99.90
39371;DHT22;25099;51.946;4.838;2023-12-20T00:40:28;7.70;99.90
39371;DHT22;25099;51.946;4.838;2023-12-20T00:42:55;7.80;99.90
39371;DHT22;25099;51.946;4.838;2023-12-20T00:45:21;7.70;99.90
39371;DHT22;25099;51.946;4.838;2023-12-20T00:47:47;7.70;99.90
39371;DHT22;25099;51.946;4.838;2023-12-20T00:50:12;7.70;99.90
39371;DHT22;25099;51.946;4.838;2023-12-20T00:52:39;7.70;99.90
39371;DHT22;25099;51.946;4.838;2023-12-20T00:55:05;7.70;99.90
39371;DHT22;25099;51.946;4.838;2023-12-20T00:57:30;7.70;99.90
39371;DHT22;25099;51.946;4.838;2023-12-20T00:59:56;7.70;99.90
39371;DHT22;25099;51.946;4.838;2023-12-20T01:02:22;7.80;99.90
39371;DHT22;25099;51.946;4.838;2023-12-20T01:04:47;7.80;99.90
39371;DHT22;25099;51.946;4.838;2023-12-20T01:07:13;7.80;99.90
39371;DHT22;25099;51.946;4.838;2023-12-20T01:09:38;7.80;99.90
39371;DHT22;25099;51.946;4.838;2023-12-20T01:12:04;7.80;99.90
39371;DHT22;25099;51.946;4.838;2023-12-20T01:14:30;7.80;99.90
39371;DHT22;25099;51.946;4.838;2023-12-20T01:16:55;7.90;99.90
39371;DHT22;25099;51.946;4.838;2023-12-20T01:19:21;7.90;99.90
39371;DHT22;25099;51.946;4.838;2023-12-20T01:21:46;7.90;99.90
39371;DHT22;25099;51.946;4.838;2023-12-20T01:24:12;7.80;99.90
39371;DHT22;25099;51.946;4.838;2023-12-20T01:26:38;7.80;99.90
39371;DHT22;25099;51.946;4.838;2023-12-20T01:29:03;7.90;99.90
39371;DHT22;25099;51.946;4.838;2023-12-20T01:31:29;7.80;99.90
39371;DHT22;25099;51.946;4.838;2023-12-20T01:33:54;7.80;99.90
39371;DHT22;25099;51.946;4.838;2023-12-20T01:36:20;7.80;99.90
39371;DHT22;25099;51.946;4.838;2023-12-20T01:38:45;7.80;99.90
39371;DHT22;25099;51.946;4.838;2023-12-20T01:41:11;7.90;99.90
39371;DHT22;25099;51.946;4.838;2023-12-20T01:43:36;7.80;99.90
39371;DHT22;25099;51.946;4.838;2023-12-20T01:46:02;7.90;99.90
39371;DHT22;25099;51.946;4.838;2023-12-20T01:48:28;7.90;99.90
39371;DHT22;25099;51.946;4.838;2023-12-20T01:50:54;7.90;99.90
39371;DHT22;25099;51.946;4.838;2023-12-20T01:53:24;7.90;99.90
39371;DHT22;25099;51.946;4.838;2023-12-20T01:55:50;7.90;99.90
39371;DHT22;25099;51.946;4.838;2023-12-20T01:58:19;7.90;99.90
39371;DHT22;25099;51.946;4.838;2023-12-20T02:00:45;7.90;99.90
39371;DHT22;25099;51.946;4.838;2023-12-20T02:03:11;7.90;99.90
39371;DHT22;25099;51.946;4.838;2023-12-20T02:05:38;7.90;99.90
39371;DHT22;25099;51.946;4.838;2023-12-20T02:08:04;7.90;99.90
39371;DHT22;25099;51.946;4.838;2023-12-20T02:10:31;8.00;99.90
39371;DHT22;25099;51.946;4.838;2023-12-20T02:12:57;8.00;99.90
39371;DHT22;25099;51.946;4.838;2023-12-20T02:15:23;7.90;99.90
39371;DHT22;25099;51.946;4.838;2023-12-20T02:17:49;8.00;99.90
39371;DHT22;25099;51.946;4.838;2023-12-20T02:20:15;7.90;99.90
39371;DHT22;25099;51.946;4.838;2023-12-20T02:22:41;7.90;99.90
39371;DHT22;25099;51.946;4.838;2023-12-20T02:25:07;8.00;99.90
39371;DHT22;25099;51.946;4.838;2023-12-20T02:27:32;7.90;99.90
39371;DHT22;25099;51.946;4.838;2023-12-20T02:29:58;8.00;99.90
39371;DHT22;25099;51.946;4.838;2023-12-20T02:32:24;8.00;99.90
39371;DHT22;25099;51.946;4.838;2023-12-20T02:34:53;8.20;99.90
39371;DHT22;25099;51.946;4.838;2023-12-20T02:37:19;8.00;99.90
39371;DHT22;25099;51.946;4.838;2023-12-20T02:39:44;8.00;99.90
39371;DHT22;25099;51.946;4.838;2023-12-20T02:42:10;8.00;99.90
39371;DHT22;25099;51.946;4.838;2023-12-20T02:44:35;8.00;99.90
39371;DHT22;25099;51.946;4.838;2023-12-20T02:47:02;8.00;99.90
39371;DHT22;25099;51.946;4.838;2023-12-20T02:49:27;8.10;99.90
39371;DHT22;25099;51.946;4.838;2023-12-20T02:51:53;8.10;99.90
39371;DHT22;25099;51.946;4.838;2023-12-20T02:54:18;8.00;99.90
39371;DHT22;25099;51.946;4.838;2023-12-20T02:56:44;8.10;99.90
39371;DHT22;25099;51.946;4.838;2023-12-20T02:59:09;8.20;99.90
39371;DHT22;25099;51.946;4.838;2023-12-20T03:01:35;8.20;99.90
39371;DHT22;25099;51.946;4.838;2023-12-20T03:04:06;8.20;99.90
39371;DHT22;25099;51.946;4.838;2023-12-20T03:06:32;8.10;99.90
39371;DHT22;25099;51.946;4.838;2023-12-20T03:08:57;8.10;99.90
39371;DHT22;25099;51.946;4.838;2023-12-20T03:11:27;8.10;99.90
39371;DHT22;25099;51.946;4.838;2023-12-20T03:13:53;8.10;99.90
39371;DHT22;25099;51.946;4.838;2023-12-20T03:16:18;8.20;99.90
39371;DHT22;25099;51.946;4.838;2023-12-20T03:18:44;8.10;99.90
39371;DHT22;25099;51.946;4.838;2023-12-20T03:21:09;8.20;99.90
39371;DHT22;25099;51.946;4.838;2023-12-20T03:23:36;8.20;99.90
39371;DHT22;25099;51.946;4.838;2023-12-20T03:26:02;8.10;99.90
39371;DHT22;25099;51.946;4.838;2023-12-20T03:28:27;8.10;99.90
39371;DHT22;25099;51.946;4.838;2023-12-20T03:30:53;8.10;99.90
39371;DHT22;25099;51.946;4.838;2023-12-20T03:33:19;8.10;99.90
39371;DHT22;25099;51.946;4.838;2023-12-20T03:35:44;8.10;99.90
39371;DHT22;25099;51.946;4.838;2023-12-20T03:38:10;8.10;99.90
39371;DHT22;25099;51.946;4.838;2023-12-20T03:40:36;8.10;99.90
39371;DHT22;25099;51.946;4.838;2023-12-20T03:43:01;8.20;99.90
39371;DHT22;25099;51.946;4.838;2023-12-20T03:45:27;8.20;99.90
39371;DHT22;25099;51.946;4.838;2023-12-20T03:47:52;8.10;99.90
39371;DHT22;25099;51.946;4.838;2023-12-20T03:50:25;8.10;99.90
39371;DHT22;25099;51.946;4.838;2023-12-20T03:52:52;8.20;99.90
39371;DHT22;25099;51.946;4.838;2023-12-20T03:55:18;8.20;99.90
39371;DHT22;25099;51.946;4.838;2023-12-20T03:57:43;8.20;99.90
39371;DHT22;25099;51.946;4.838;2023-12-20T04:00:09;8.20;99.90
39371;DHT22;25099;51.946;4.838;2023-12-20T04:02:36;8.10;99.90
39371;DHT22;25099;51.946;4.838;2023-12-20T04:05:02;8.20;99.90
39371;DHT22;25099;51.946;4.838;2023-12-20T04:07:29;8.10;99.90
39371;DHT22;25099;51.946;4.838;2023-12-20T04:09:56;8.10;99.90
39371;DHT22;25099;51.946;4.838;2023-12-20T04:12:21;8.10;99.90
39371;DHT22;25099;51.946;4.838;2023-12-20T04:14:47;8.00;99.90
39371;DHT22;25099;51.946;4.838;2023-12-20T04:17:12;8.00;99.90
39371;DHT22;25099;51.946;4.838;2023-12-20T04:19:38;8.00;99.90
39371;DHT22;25099;51.946;4.838;2023-12-20T04:22:03;8.00;99.90
39371;DHT22;25099;51.946;4.838;2023-12-20T04:24:29;8.00;99.90
39371;DHT22;25099;51.946;4.838;2023-12-20T04:26:54;7.90;99.90
39371;DHT22;25099;51.946;4.838;2023-12-20T04:29:20;7.90;99.90
39371;DHT22;25099;51.946;4.838;2023-12-20T04:31:45;7.90;99.90
39371;DHT22;25099;51.946;4.838;2023-12-20T04:34:11;7.90;99.90
39371;DHT22;25099;51.946;4.838;2023-12-20T04:36:36;8.00;99.90
39371;DHT22;25099;51.946;4.838;2023-12-20T04:39:03;8.00;99.90
39371;DHT22;25099;51.946;4.838;2023-12-20T04:41:30;8.00;99.90
39371;DHT22;25099;51.946;4.838;2023-12-20T04:43:55;8.00;99.90
39371;DHT22;25099;51.946;4.838;2023-12-20T04:46:21;8.00;99.90
39371;DHT22;25099;51.946;4.838;2023-12-20T04:48:46;8.00;99.90
39371;DHT22;25099;51.946;4.838;2023-12-20T04:51:12;8.00;99.90
39371;DHT22;25099;51.946;4.838;2023-12-20T04:53:38;8.00;99.90
39371;DHT22;25099;51.946;4.838;2023-12-20T04:56:03;8.00;99.90
39371;DHT22;25099;51.946;4.838;2023-12-20T04:58:29;8.00;99.90
39371;DHT22;25099;51.946;4.838;2023-12-20T05:00:55;8.00;99.90
39371;DHT22;25099;51.946;4.838;2023-12-20T05:03:20;7.90;99.90
39371;DHT22;25099;51.946;4.838;2023-12-20T05:05:46;7.90;99.90
39371;DHT22;25099;51.946;4.838;2023-12-20T05:08:11;7.90;99.90
39371;DHT22;25099;51.946;4.838;2023-12-20T05:10:38;7.90;99.90
39371;DHT22;25099;51.946;4.838;2023-12-20T05:13:05;7.90;99.90
39371;DHT22;25099;51.946;4.838;2023-12-20T05:15:31;7.90;99.90
39371;DHT22;25099;51.946;4.838;2023-12-20T05:17:57;7.80;99.90
39371;DHT22;25099;51.946;4.838;2023-12-20T05:20:22;7.80;99.90
39371;DHT22;25099;51.946;4.838;2023-12-20T05:22:48;7.90;99.90
39371;DHT22;25099;51.946;4.838;2023-12-20T05:25:14;7.90;99.90
39371;DHT22;25099;51.946;4.838;2023-12-20T05:27:39;7.90;99.90
39371;DHT22;25099;51.946;4.838;2023-12-20T05:30:06;7.80;99.90
39371;DHT22;25099;51.946;4.838;2023-12-20T05:32:31;7.80;99.90
39371;DHT22;25099;51.946;4.838;2023-12-20T05:34:57;7.90;99.90
39371;DHT22;25099;51.946;4.838;2023-12-20T05:37:22;7.90;99.90
39371;DHT22;25099;51.946;4.838;2023-12-20T05:39:48;7.80;99.90
39371;DHT22;25099;51.946;4.838;2023-12-20T05:42:14;7.90;99.90
39371;DHT22;25099;51.946;4.838;2023-12-20T05:44:39;7.90;99.90
39371;DHT22;25099;51.946;4.838;2023-12-20T05:47:05;7.90;99.90
39371;DHT22;25099;51.946;4.838;2023-12-20T05:49:30;7.90;99.90
39371;DHT22;25099;51.946;4.838;2023-12-20T05:51:57;7.90;99.90
39371;DHT22;25099;51.946;4.838;2023-12-20T05:54:22;7.90;99.90
39371;DHT22;25099;51.946;4.838;2023-12-20T05:56:48;7.90;99.90
39371;DHT22;25099;51.946;4.838;2023-12-20T05:59:14;7.90;99.90
39371;DHT22;25099;51.946;4.838;2023-12-20T06:01:39;7.90;99.90
39371;DHT22;25099;51.946;4.838;2023-12-20T06:04:05;7.90;99.90
39371;DHT22;25099;51.946;4.838;2023-12-20T06:06:30;7.90;99.90
39371;DHT22;25099;51.946;4.838;2023-12-20T06:08:56;8.00;99.90
39371;DHT22;25099;51.946;4.838;2023-12-20T06:11:21;8.00;99.90
39371;DHT22;25099;51.946;4.838;2023-12-20T06:13:47;8.00;99.90
39371;DHT22;25099;51.946;4.838;2023-12-20T06:16:14;8.00;99.90
39371;DHT22;25099;51.946;4.838;2023-12-20T06:18:41;8.00;99.90
39371;DHT22;25099;51.946;4.838;2023-12-20T06:21:07;8.00;99.90
39371;DHT22;25099;51.946;4.838;2023-12-20T06:23:33;8.10;99.90
39371;DHT22;25099;51.946;4.838;2023-12-20T06:25:58;8.00;99.90
39371;DHT22;25099;51.946;4.838;2023-12-20T06:28:24;8.10;99.90
39371;DHT22;25099;51.946;4.838;2023-12-20T06:30:50;8.10;99.90
39371;DHT22;25099;51.946;4.838;2023-12-20T06:33:18;8.10;99.90
39371;DHT22;25099;51.946;4.838;2023-12-20T06:35:44;8.30;99.90
39371;DHT22;25099;51.946;4.838;2023-12-20T06:38:09;8.20;99.90
39371;DHT22;25099;51.946;4.838;2023-12-20T06:40:35;8.20;99.90
39371;DHT22;25099;51.946;4.838;2023-12-20T06:43:00;8.20;99.90
39371;DHT22;25099;51.946;4.838;2023-12-20T06:45:26;8.30;99.90
39371;DHT22;25099;51.946;4.838;2023-12-20T06:47:51;8.30;99.90
39371;DHT22;25099;51.946;4.838;2023-12-20T06:50:17;8.30;99.90
39371;DHT22;25099;51.946;4.838;2023-12-20T06:52:42;8.30;99.90
39371;DHT22;25099;51.946;4.838;2023-12-20T06:55:08;8.30;99.90
39371;DHT22;25099;51.946;4.838;2023-12-20T06:57:34;8.30;99.90
39371;DHT22;25099;51.946;4.838;2023-12-20T07:00:01;8.30;99.90
39371;DHT22;25099;51.946;4.838;2023-12-20T07:02:27;8.30;99.90
39371;DHT22;25099;51.946;4.838;2023-12-20T07:04:55;8.30;99.90
39371;DHT22;25099;51.946;4.838;2023-12-20T07:07:21;8.30;99.90
39371;DHT22;25099;51.946;4.838;2023-12-20T07:09:48;8.30;99.90
39371;DHT22;25099;51.946;4.838;2023-12-20T07:12:14;8.30;99.90
39371;DHT22;25099;51.946;4.838;2023-12-20T07:14:39;8.40;99.90
39371;DHT22;25099;51.946;4.838;2023-12-20T07:17:05;8.30;99.90
39371;DHT22;25099;51.946;4.838;2023-12-20T07:19:32;8.40;99.90
39371;DHT22;25099;51.946;4.838;2023-12-20T07:21:58;8.40;99.90
39371;DHT22;25099;51.946;4.838;2023-12-20T07:24:23;8.40;99.90
39371;DHT22;25099;51.946;4.838;2023-12-20T07:26:49;8.40;99.90
39371;DHT22;25099;51.946;4.838;2023-12-20T07:29:14;8.40;99.90
39371;DHT22;25099;51.946;4.838;2023-12-20T07:31:40;8.40;99.90
39371;DHT22;25099;51.946;4.838;2023-12-20T07:34:05;8.30;99.90
39371;DHT22;25099;51.946;4.838;2023-12-20T07:36:31;8.40;99.90
39371;DHT22;25099;51.946;4.838;2023-12-20T07:38:57;8.40;99.90
39371;DHT22;25099;51.946;4.838;2023-12-20T07:41:22;8.30;99.90
39371;DHT22;25099;51.946;4.838;2023-12-20T07:43:49;8.40;99.90
39371;DHT22;25099;51.946;4.838;2023-12-20T07:46:15;8.40;99.90
39371;DHT22;25099;51.946;4.838;2023-12-20T07:48:41;8.40;99.90
39371;DHT22;25099;51.946;4.838;2023-12-20T07:51:07;8.40;99.90
39371;DHT22;25099;51.946;4.838;2023-12-20T07:53:35;8.30;99.90
39371;DHT22;25099;51.946;4.838;2023-12-20T07:56:00;8.40;99.90
39371;DHT22;25099;51.946;4.838;2023-12-20T07:58:26;8.30;99.90
39371;DHT22;25099;51.946;4.838;2023-12-20T08:00:51;8.40;99.90
39371;DHT22;25099;51.946;4.838;2023-12-20T08:03:17;8.40;99.90
39371;DHT22;25099;51.946;4.838;2023-12-20T08:05:42;8.40;99.90
39371;DHT22;25099;51.946;4.838;2023-12-20T08:08:08;8.40;99.90
39371;DHT22;25099;51.946;4.838;2023-12-20T08:10:33;8.40;99.90
39371;DHT22;25099;51.946;4.838;2023-12-20T08:13:00;8.30;99.90
39371;DHT22;25099;51.946;4.838;2023-12-20T08:15:25;8.40;99.90
39371;DHT22;25099;51.946;4.838;2023-12-20T08:17:52;8.40;99.90
39371;DHT22;25099;51.946;4.838;2023-12-20T08:20:20;8.40;99.90
39371;DHT22;25099;51.946;4.838;2023-12-20T08:22:46;8.40;99.90
39371;DHT22;25099;51.946;4.838;2023-12-20T08:25:11;8.40;99.90
39371;DHT22;25099;51.946;4.838;2023-12-20T08:27:42;8.40;99.90
39371;DHT22;25099;51.946;4.838;2023-12-20T08:30:10;8.40;99.90
39371;DHT22;25099;51.946;4.838;2023-12-20T08:32:35;8.40;99.90
39371;DHT22;25099;51.946;4.838;2023-12-20T08:35:01;9.50;99.90
39371;DHT22;25099;51.946;4.838;2023-12-20T08:37:27;8.50;99.90
39371;DHT22;25099;51.946;4.838;2023-12-20T08:39:52;8.50;99.90
39371;DHT22;25099;51.946;4.838;2023-12-20T08:42:18;8.50;99.90
39371;DHT22;25099;51.946;4.838;2023-12-20T08:44:43;8.50;99.90
39371;DHT22;25099;51.946;4.838;2023-12-20T08:47:09;8.50;99.90
39371;DHT22;25099;51.946;4.838;2023-12-20T08:49:38;8.50;99.90
39371;DHT22;25099;51.946;4.838;2023-12-20T08:54:39;8.50;99.90
39371;DHT22;25099;51.946;4.838;2023-12-20T08:57:05;8.50;99.90
39371;DHT22;25099;51.946;4.838;2023-12-20T08:59:32;9.90;99.90
39371;DHT22;25099;51.946;4.838;2023-12-20T09:01:58;8.60;99.90
39371;DHT22;25099;51.946;4.838;2023-12-20T09:04:23;8.60;99.90
39371;DHT22;25099;51.946;4.838;2023-12-20T09:06:50;8.60;99.90
39371;DHT22;25099;51.946;4.838;2023-12-20T09:09:16;8.60;99.90
39371;DHT22;25099;51.946;4.838;2023-12-20T09:11:42;8.60;99.90
39371;DHT22;25099;51.946;4.838;2023-12-20T09:14:08;8.70;99.90
39371;DHT22;25099;51.946;4.838;2023-12-20T09:16:33;8.60;99.90
39371;DHT22;25099;51.946;4.838;2023-12-20T09:19:00;8.70;99.90
39371;DHT22;25099;51.946;4.838;2023-12-20T09:21:27;8.70;99.90
39371;DHT22;25099;51.946;4.838;2023-12-20T09:23:53;8.70;99.90
39371;DHT22;25099;51.946;4.838;2023-12-20T09:26:19;8.70;99.90
39371;DHT22;25099;51.946;4.838;2023-12-20T09:28:45;8.70;99.90
39371;DHT22;25099;51.946;4.838;2023-12-20T09:31:10;8.70;99.90
39371;DHT22;25099;51.946;4.838;2023-12-20T09:33:36;8.80;99.90
39371;DHT22;25099;51.946;4.838;2023-12-20T09:36:01;8.80;99.90
39371;DHT22;25099;51.946;4.838;2023-12-20T09:38:28;8.80;99.90
39371;DHT22;25099;51.946;4.838;2023-12-20T09:40:55;8.80;99.90
39371;DHT22;25099;51.946;4.838;2023-12-20T09:43:24;8.80;99.90
39371;DHT22;25099;51.946;4.838;2023-12-20T09:45:53;8.80;99.90
39371;DHT22;25099;51.946;4.838;2023-12-20T09:48:19;8.80;99.90
39371;DHT22;25099;51.946;4.838;2023-12-20T09:50:47;8.90;99.90
39371;DHT22;25099;51.946;4.838;2023-12-20T09:53:15;8.90;99.90
39371;DHT22;25099;51.946;4.838;2023-12-20T09:55:42;8.90;99.90
39371;DHT22;25099;51.946;4.838;2023-12-20T09:58:08;8.90;99.90
39371;DHT22;25099;51.946;4.838;2023-12-20T10:00:35;8.90;99.90
39371;DHT22;25099;51.946;4.838;2023-12-20T10:03:00;8.90;99.90
39371;DHT22;25099;51.946;4.838;2023-12-20T10:05:28;9.00;99.90
39371;DHT22;25099;51.946;4.838;2023-12-20T10:07:54;9.00;99.90
39371;DHT22;25099;51.946;4.838;2023-12-20T10:10:20;9.00;99.90
39371;DHT22;25099;51.946;4.838;2023-12-20T10:13:06;9.90;99.90
39371;DHT22;25099;51.946;4.838;2023-12-20T10:15:35;9.00;99.90
39371;DHT22;25099;51.946;4.838;2023-12-20T10:18:04;9.00;99.90
39371;DHT22;25099;51.946;4.838;2023-12-20T10:20:30;9.00;99.90
39371;DHT22;25099;51.946;4.838;2023-12-20T10:22:57;9.10;99.90
39371;DHT22;25099;51.946;4.838;2023-12-20T10:25:24;9.10;99.90
39371;DHT22;25099;51.946;4.838;2023-12-20T10:30:37;9.10;99.90
39371;DHT22;25099;51.946;4.838;2023-12-20T10:33:04;9.20;99.90
39371;DHT22;25099;51.946;4.838;2023-12-20T10:35:31;9.20;99.90
39371;DHT22;25099;51.946;4.838;2023-12-20T10:37:58;9.20;99.90
39371;DHT22;25099;51.946;4.838;2023-12-20T10:40:27;9.20;99.90
39371;DHT22;25099;51.946;4.838;2023-12-20T10:42:55;9.20;99.90
39371;DHT22;25099;51.946;4.838;2023-12-20T10:45:22;9.20;99.90
39371;DHT22;25099;51.946;4.838;2023-12-20T10:47:53;9.20;99.90
39371;DHT22;25099;51.946;4.838;2023-12-20T10:50:20;9.20;99.90
39371;DHT22;25099;51.946;4.838;2023-12-20T10:52:47;9.30;99.90
39371;DHT22;25099;51.946;4.838;2023-12-20T10:55:14;10.00;99.90
39371;DHT22;25099;51.946;4.838;2023-12-20T10:57:40;9.30;99.90
39371;DHT22;25099;51.946;4.838;2023-12-20T11:00:08;9.30;99.90
39371;DHT22;25099;51.946;4.838;2023-12-20T11:05:06;9.30;99.90
39371;DHT22;25099;51.946;4.838;2023-12-20T11:07:45;9.30;99.90
39371;DHT22;25099;51.946;4.838;2023-12-20T11:10:20;9.30;99.90
39371;DHT22;25099;51.946;4.838;2023-12-20T11:13:12;9.30;99.90
39371;DHT22;25099;51.946;4.838;2023-12-20T11:15:42;9.30;99.90
39371;DHT22;25099;51.946;4.838;2023-12-20T11:18:08;9.30;99.90
39371;DHT22;25099;51.946;4.838;2023-12-20T11:20:39;9.40;99.90
39371;DHT22;25099;51.946;4.838;2023-12-20T11:23:05;9.40;99.90
39371;DHT22;25099;51.946;4.838;2023-12-20T11:28:13;9.40;99.90
39371;DHT22;25099;51.946;4.838;2023-12-20T11:30:52;9.40;99.90
39371;DHT22;25099;51.946;4.838;2023-12-20T11:33:25;9.40;99.90
39371;DHT22;25099;51.946;4.838;2023-12-20T11:35:51;8.70;99.90
39371;DHT22;25099;51.946;4.838;2023-12-20T11:38:19;10.40;99.90
39371;DHT22;25099;51.946;4.838;2023-12-20T11:40:48;9.40;99.90
39371;DHT22;25099;51.946;4.838;2023-12-20T11:43:30;9.40;99.90
39371;DHT22;25099;51.946;4.838;2023-12-20T11:46:05;10.00;99.90
39371;DHT22;25099;51.946;4.838;2023-12-20T11:48:32;9.40;99.90
39371;DHT22;25099;51.946;4.838;2023-12-20T11:51:16;9.40;99.90
39371;DHT22;25099;51.946;4.838;2023-12-20T11:53:42;9.20;99.90
39371;DHT22;25099;51.946;4.838;2023-12-20T11:56:16;10.10;99.90
39371;DHT22;25099;51.946;4.838;2023-12-20T11:58:43;9.40;99.90
39371;DHT22;25099;51.946;4.838;2023-12-20T12:01:09;9.40;99.90
39371;DHT22;25099;51.946;4.838;2023-12-20T12:03:38;9.70;99.90
39371;DHT22;25099;51.946;4.838;2023-12-20T12:06:10;10.10;99.90
39371;DHT22;25099;51.946;4.838;2023-12-20T12:08:39;9.40;99.90
39371;DHT22;25099;51.946;4.838;2023-12-20T12:11:05;10.20;99.90
39371;DHT22;25099;51.946;4.838;2023-12-20T12:13:31;9.90;99.90
39371;DHT22;25099;51.946;4.838;2023-12-20T12:16:23;10.40;99.90
39371;DHT22;25099;51.946;4.838;2023-12-20T12:18:58;9.00;99.90
39371;DHT22;25099;51.946;4.838;2023-12-20T12:21:25;10.10;99.90
39371;DHT22;25099;51.946;4.838;2023-12-20T12:23:50;10.30;99.90
39371;DHT22;25099;51.946;4.838;2023-12-20T12:26:16;9.50;99.90
39371;DHT22;25099;51.946;4.838;2023-12-20T12:28:43;9.50;99.90
39371;DHT22;25099;51.946;4.838;2023-12-20T12:31:15;9.50;99.90
39371;DHT22;25099;51.946;4.838;2023-12-20T12:33:44;9.50;99.90
39371;DHT22;25099;51.946;4.838;2023-12-20T12:36:12;9.50;99.90
39371;DHT22;25099;51.946;4.838;2023-12-20T12:38:41;9.50;99.90
39371;DHT22;25099;51.946;4.838;2023-12-20T12:41:07;9.50;99.90
39371;DHT22;25099;51.946;4.838;2023-12-20T12:43:32;9.50;99.90
39371;DHT22;25099;51.946;4.838;2023-12-20T12:45:58;9.50;99.90
39371;DHT22;25099;51.946;4.838;2023-12-20T12:48:25;9.50;99.90
39371;DHT22;25099;51.946;4.838;2023-12-20T12:50:53;9.50;99.90
39371;DHT22;25099;51.946;4.838;2023-12-20T12:53:27;9.60;99.90
39371;DHT22;25099;51.946;4.838;2023-12-20T12:55:53;9.60;99.90
39371;DHT22;25099;51.946;4.838;2023-12-20T12:58:22;9.60;99.90
39371;DHT22;25099;51.946;4.838;2023-12-20T13:00:49;10.10;99.90
39371;DHT22;25099;51.946;4.838;2023-12-20T13:03:15;9.60;99.90
39371;DHT22;25099;51.946;4.838;2023-12-20T13:05:41;9.60;99.90
39371;DHT22;25099;51.946;4.838;2023-12-20T13:08:07;9.60;99.90
39371;DHT22;25099;51.946;4.838;2023-12-20T13:10:34;9.60;99.90
39371;DHT22;25099;51.946;4.838;2023-12-20T13:13:00;10.10;99.90
39371;DHT22;25099;51.946;4.838;2023-12-20T13:15:28;9.60;99.90
39371;DHT22;25099;51.946;4.838;2023-12-20T13:17:59;9.60;99.90
39371;DHT22;25099;51.946;4.838;2023-12-20T13:20:45;9.60;99.90
39371;DHT22;25099;51.946;4.838;2023-12-20T13:23:11;9.70;99.90
39371;DHT22;25099;51.946;4.838;2023-12-20T13:25:37;9.60;99.90
39371;DHT22;25099;51.946;4.838;2023-12-20T13:28:08;9.60;99.90
39371;DHT22;25099;51.946;4.838;2023-12-20T13:30:39;10.30;99.90
39371;DHT22;25099;51.946;4.838;2023-12-20T13:33:05;10.40;99.90
39371;DHT22;25099;51.946;4.838;2023-12-20T13:35:31;10.50;99.90
39371;DHT22;25099;51.946;4.838;2023-12-20T13:37:57;10.70;99.90
39371;DHT22;25099;51.946;4.838;2023-12-20T13:40:23;10.50;99.90
39371;DHT22;25099;51.946;4.838;2023-12-20T13:42:50;9.60;99.90
39371;DHT22;25099;51.946;4.838;2023-12-20T13:45:16;10.30;99.90
39371;DHT22;25099;51.946;4.838;2023-12-20T13:47:42;10.50;99.90
39371;DHT22;25099;51.946;4.838;2023-12-20T13:50:10;10.50;99.90
39371;DHT22;25099;51.946;4.838;2023-12-20T13:52:51;9.60;99.90
39371;DHT22;25099;51.946;4.838;2023-12-20T13:55:29;9.30;99.90
39371;DHT22;25099;51.946;4.838;2023-12-20T13:57:56;10.40;99.90
39371;DHT22;25099;51.946;4.838;2023-12-20T14:00:22;10.50;99.90
39371;DHT22;25099;51.946;4.838;2023-12-20T14:02:48;10.10;99.90
39371;DHT22;25099;51.946;4.838;2023-12-20T14:05:14;10.40;99.90
39371;DHT22;25099;51.946;4.838;2023-12-20T14:07:43;9.60;99.90
39371;DHT22;25099;51.946;4.838;2023-12-20T14:10:32;9.60;99.90
39371;DHT22;25099;51.946;4.838;2023-12-20T14:12:57;9.60;99.90
39371;DHT22;25099;51.946;4.838;2023-12-20T14:15:23;10.50;99.90
39371;DHT22;25099;51.946;4.838;2023-12-20T14:17:50;10.70;99.90
39371;DHT22;25099;51.946;4.838;2023-12-20T14:20:22;9.60;99.90
39371;DHT22;25099;51.946;4.838;2023-12-20T14:22:48;9.60;99.90
39371;DHT22;25099;51.946;4.838;2023-12-20T14:25:14;9.50;99.90
39371;DHT22;25099;51.946;4.838;2023-12-20T14:27:42;9.60;99.90
39371;DHT22;25099;51.946;4.838;2023-12-20T14:30:10;9.50;99.90
39371;DHT22;25099;51.946;4.838;2023-12-20T14:32:37;9.50;99.90
39371;DHT22;25099;51.946;4.838;2023-12-20T14:35:05;9.50;99.90
39371;DHT22;25099;51.946;4.838;2023-12-20T14:37:31;9.50;99.90
39371;DHT22;25099;51.946;4.838;2023-12-20T14:39:56;9.60;99.90
39371;DHT22;25099;51.946;4.838;2023-12-20T14:42:23;9.50;99.90
39371;DHT22;25099;51.946;4.838;2023-12-20T14:44:50;9.50;99.90
39371;DHT22;25099;51.946;4.838;2023-12-20T14:47:17;9.60;99.90
39371;DHT22;25099;51.946;4.838;2023-12-20T14:49:43;10.10;99.90
39371;DHT22;25099;51.946;4.838;2023-12-20T14:52:08;9.50;99.90
39371;DHT22;25099;51.946;4.838;2023-12-20T14:54:37;9.50;99.90
39371;DHT22;25099;51.946;4.838;2023-12-20T14:57:03;9.50;99.90
39371;DHT22;25099;51.946;4.838;2023-12-20T14:59:28;9.40;99.90
39371;DHT22;25099;51.946;4.838;2023-12-20T15:01:55;9.50;99.90
39371;DHT22;25099;51.946;4.838;2023-12-20T15:04:21;9.50;99.90
39371;DHT22;25099;51.946;4.838;2023-12-20T15:06:54;9.50;99.90
39371;DHT22;25099;51.946;4.838;2023-12-20T15:09:19;9.40;99.90
39371;DHT22;25099;51.946;4.838;2023-12-20T15:11:45;9.50;99.90
39371;DHT22;25099;51.946;4.838;2023-12-20T15:14:11;9.40;99.90
39371;DHT22;25099;51.946;4.838;2023-12-20T15:16:36;9.40;99.90
39371;DHT22;25099;51.946;4.838;2023-12-20T15:19:02;9.40;99.90
39371;DHT22;25099;51.946;4.838;2023-12-20T15:21:28;9.30;99.90
39371;DHT22;25099;51.946;4.838;2023-12-20T15:23:59;9.40;99.90
39371;DHT22;25099;51.946;4.838;2023-12-20T15:26:34;9.40;99.90
39371;DHT22;25099;51.946;4.838;2023-12-20T15:29:05;9.40;99.90
39371;DHT22;25099;51.946;4.838;2023-12-20T15:31:31;9.40;99.90
39371;DHT22;25099;51.946;4.838;2023-12-20T15:33:59;9.40;99.90
39371;DHT22;25099;51.946;4.838;2023-12-20T15:36:24;9.40;99.90
39371;DHT22;25099;51.946;4.838;2023-12-20T15:38:52;9.40;99.90
39371;DHT22;25099;51.946;4.838;2023-12-20T15:41:21;9.40;99.90
39371;DHT22;25099;51.946;4.838;2023-12-20T15:43:47;9.40;99.90
39371;DHT22;25099;51.946;4.838;2023-12-20T15:46:14;9.30;99.90
39371;DHT22;25099;51.946;4.838;2023-12-20T15:48:42;9.30;99.90
39371;DHT22;25099;51.946;4.838;2023-12-20T15:51:11;9.40;99.90
39371;DHT22;25099;51.946;4.838;2023-12-20T15:53:36;9.40;99.90